createdAt,value
2022-08-22T00:00:24.117Z,65.75
2022-08-22T00:02:41.798Z,62.34
2022-08-22T00:03:01.115Z,63.48
2022-08-22T00:03:15.752Z,67.80
2022-08-22T00:03:16.136Z,66.54
2022-08-22T00:06:12.668Z,65.36
2022-08-22T00:09:05.768Z,64.86
2022-08-22T00:11:54.658Z,65.09
2022-08-22T00:14:42.736Z,65.02
2022-08-22T00:17:40.946Z,64.90
2022-08-22T00:20:30.263Z,65.13
2022-08-22T00:23:23.823Z,64.29
2022-08-22T00:26:16.502Z,63.01
2022-08-22T00:29:04.620Z,62.95
2022-08-22T00:31:52.317Z,62.14
2022-08-22T00:34:41.147Z,62.83
2022-08-22T00:37:29.894Z,62.25
2022-08-22T00:40:31.868Z,61.67
2022-08-22T00:43:44.727Z,61.53
2022-08-22T00:46:56.519Z,62.23
2022-08-22T00:50:06.988Z,62.30
2022-08-22T00:53:08.833Z,62.17
2022-08-22T00:56:10.309Z,61.02
2022-08-22T00:59:23.329Z,61.41
2022-08-22T01:02:21.973Z,61.81
2022-08-22T01:05:43.716Z,61.14
2022-08-22T01:08:47.813Z,61.68
2022-08-22T01:11:48.070Z,61.61
2022-08-22T01:14:46.692Z,61.97
2022-08-22T01:17:55.233Z,61.96
2022-08-22T01:21:24.383Z,62.06
2022-08-22T01:25:01.833Z,62.09
2022-08-22T01:28:24.427Z,61.91
2022-08-22T01:31:46.282Z,61.76
2022-08-22T01:35:10.710Z,61.74
2022-08-22T01:38:23.533Z,61.93
2022-08-22T01:41:34.427Z,62.18
2022-08-22T01:44:39.295Z,62.13
2022-08-22T01:47:27.975Z,62.32
2022-08-22T01:50:23.427Z,62.36
2022-08-22T01:53:11.847Z,62.34
2022-08-22T01:56:02.131Z,62.36
2022-08-22T01:58:54.965Z,62.37
2022-08-22T02:01:54.322Z,62.34
2022-08-22T02:04:53.395Z,62.52
2022-08-22T02:07:47.141Z,62.70
2022-08-22T02:10:48.240Z,62.51
2022-08-22T02:13:55.520Z,62.30
2022-08-22T02:16:42.281Z,62.42
2022-08-22T02:19:37.992Z,62.40
2022-08-22T02:22:34.028Z,62.44
2022-08-22T02:25:25.344Z,62.71
2022-08-22T02:28:13.791Z,62.82
2022-08-22T02:31:06.672Z,62.93
2022-08-22T02:33:54.916Z,62.73
2022-08-22T02:36:47.748Z,62.59
2022-08-22T02:39:36.889Z,62.37
2022-08-22T02:42:28.204Z,62.41
2022-08-22T02:45:25.837Z,62.39
2022-08-22T02:48:21.646Z,62.70
2022-08-22T02:51:18.193Z,62.46
2022-08-22T02:54:14.202Z,62.74
2022-08-22T02:57:02.722Z,62.81
2022-08-22T03:00:32.790Z,63.07
2022-08-22T03:03:21.430Z,63.04
2022-08-22T03:06:09.100Z,63.19
2022-08-22T03:09:06.655Z,63.44
2022-08-22T03:11:59.357Z,63.33
2022-08-22T03:14:48.438Z,63.40
2022-08-22T03:17:38.910Z,63.71
2022-08-22T03:20:41.621Z,63.81
2022-08-22T03:23:33.958Z,63.87
2022-08-22T03:26:25.053Z,63.86
2022-08-22T03:29:17.404Z,63.98
2022-08-22T03:32:12.987Z,64.09
2022-08-22T03:35:01.974Z,64.06
2022-08-22T03:37:46.039Z,63.94
2022-08-22T03:40:35.655Z,63.88
2022-08-22T03:43:39.960Z,63.82
2022-08-22T03:46:52.645Z,63.94
2022-08-22T03:50:01.595Z,63.85
2022-08-22T03:53:15.426Z,63.98
2022-08-22T03:56:41.431Z,64.11
2022-08-22T03:59:47.995Z,64.28
2022-08-22T04:02:58.616Z,64.93
2022-08-22T04:06:03.736Z,64.83
2022-08-22T04:09:29.136Z,65.05
2022-08-22T04:12:31.423Z,64.91
2022-08-22T04:15:46.135Z,65.39
2022-08-22T04:18:53.751Z,65.56
2022-08-22T04:21:59.649Z,65.55
2022-08-22T04:24:53.759Z,65.64
2022-08-22T04:27:42.518Z,65.64
2022-08-22T04:30:31.781Z,65.56
2022-08-22T04:33:20.783Z,65.41
2022-08-22T04:36:13.184Z,65.26
2022-08-22T04:39:03.859Z,65.33
2022-08-22T04:41:51.514Z,65.53
2022-08-22T04:44:43.105Z,65.88
2022-08-22T04:47:34.608Z,65.84
2022-08-22T04:50:23.592Z,65.67
2022-08-22T04:53:18.683Z,65.57
2022-08-22T04:56:07.770Z,66.14
2022-08-22T04:58:58.128Z,65.63
2022-08-22T05:01:46.701Z,65.60
2022-08-22T05:04:33.378Z,65.48
2022-08-22T05:07:20.884Z,65.54
2022-08-22T05:10:11.900Z,65.51
2022-08-22T05:13:00.982Z,65.37
2022-08-22T05:15:48.595Z,65.51
2022-08-22T05:18:37.227Z,65.32
2022-08-22T05:21:24.458Z,65.45
2022-08-22T05:24:15.399Z,65.36
2022-08-22T05:27:06.649Z,65.37
2022-08-22T05:29:56.613Z,65.26
2022-08-22T05:32:49.000Z,65.09
2022-08-22T05:35:36.708Z,64.85
2022-08-22T05:38:27.523Z,64.74
2022-08-22T05:41:19.125Z,64.48
2022-08-22T05:44:03.495Z,64.02
2022-08-22T05:46:51.371Z,64.16
2022-08-22T05:49:39.895Z,63.88
2022-08-22T05:52:33.650Z,64.00
2022-08-22T05:55:26.236Z,63.53
2022-08-22T05:58:19.345Z,63.09
2022-08-22T06:01:13.598Z,63.17
2022-08-22T06:04:05.798Z,63.26
2022-08-22T06:06:58.297Z,62.99
2022-08-22T06:10:06.678Z,63.25
2022-08-22T06:12:57.536Z,63.68
2022-08-22T06:15:48.711Z,63.92
2022-08-22T06:18:33.794Z,63.80
2022-08-22T06:21:24.835Z,63.79
2022-08-22T06:24:14.192Z,63.33
2022-08-22T06:27:06.038Z,63.39
2022-08-22T06:29:53.092Z,62.93
2022-08-22T06:32:58.907Z,62.74
2022-08-22T06:36:05.100Z,63.13
2022-08-22T06:39:07.469Z,63.34
2022-08-22T06:41:53.823Z,63.76
2022-08-22T06:44:39.490Z,63.66
2022-08-22T06:47:25.909Z,63.52
2022-08-22T06:50:15.264Z,63.39
2022-08-22T06:53:02.406Z,63.27
2022-08-22T06:55:50.331Z,63.12
2022-08-22T06:58:39.000Z,62.92
2022-08-22T07:01:24.996Z,63.04
2022-08-22T07:04:11.254Z,63.05
2022-08-22T07:06:57.574Z,62.97
2022-08-22T07:09:42.342Z,63.26
2022-08-22T07:12:32.252Z,62.74
2022-08-22T07:15:22.513Z,62.95
2022-08-22T07:18:09.855Z,63.13
2022-08-22T07:20:55.375Z,63.07
2022-08-22T07:23:44.596Z,62.92
2022-08-22T07:26:33.866Z,63.15
2022-08-22T07:29:27.408Z,62.89
2022-08-22T07:32:14.671Z,62.71
2022-08-22T07:35:09.465Z,63.09
2022-08-22T07:38:02.348Z,62.84
2022-08-22T07:40:53.830Z,62.77
2022-08-22T07:43:42.903Z,62.47
2022-08-22T07:46:32.625Z,62.14
2022-08-22T07:49:21.786Z,62.41
2022-08-22T07:52:08.609Z,62.53
2022-08-22T07:54:57.873Z,62.28
2022-08-22T07:57:44.598Z,62.21
2022-08-22T08:00:28.971Z,62.26
2022-08-22T08:03:13.938Z,61.85
2022-08-22T08:05:57.794Z,61.15
2022-08-22T08:08:44.339Z,60.46
2022-08-22T08:11:31.949Z,58.89
2022-08-22T08:14:17.380Z,58.75
2022-08-22T08:17:04.151Z,58.65
2022-08-22T08:19:50.716Z,58.76
2022-08-22T08:22:35.492Z,59.06
2022-08-22T08:25:22.576Z,58.84
2022-08-22T08:28:23.928Z,59.14
2022-08-22T08:31:14.073Z,59.24
2022-08-22T08:34:03.340Z,58.74
2022-08-22T08:36:52.411Z,57.87
2022-08-22T08:39:39.246Z,57.75
2022-08-22T08:43:10.636Z,58.62
2022-08-22T08:46:33.732Z,58.66
2022-08-22T08:49:28.283Z,59.12
2022-08-22T08:52:32.187Z,59.08
2022-08-22T08:55:28.070Z,58.70
2022-08-22T08:58:43.378Z,57.75
2022-08-22T09:01:47.666Z,56.75
2022-08-22T09:05:07.103Z,57.42
2022-08-22T09:08:03.923Z,58.17
2022-08-22T09:11:28.530Z,57.41
2022-08-22T09:14:36.896Z,57.63
2022-08-22T09:17:46.003Z,57.29
2022-08-22T09:20:48.188Z,56.98
2022-08-22T09:23:53.965Z,56.34
2022-08-22T09:26:48.096Z,56.39
2022-08-22T09:29:51.516Z,56.95
2022-08-22T09:32:47.049Z,57.00
2022-08-22T09:35:42.146Z,56.84
2022-08-22T09:38:34.635Z,56.87
2022-08-22T09:41:31.955Z,56.70
2022-08-22T09:44:29.431Z,56.14
2022-08-22T09:47:24.313Z,55.87
2022-08-22T09:50:17.091Z,55.42
2022-08-22T09:53:10.289Z,55.29
2022-08-22T09:56:00.970Z,55.48
2022-08-22T09:59:06.650Z,55.23
2022-08-22T10:01:59.060Z,54.23
2022-08-22T10:04:53.984Z,54.23
2022-08-22T10:07:53.954Z,54.21
2022-08-22T10:11:02.063Z,54.78
2022-08-22T10:14:00.629Z,53.56
2022-08-22T10:17:00.657Z,54.18
2022-08-22T10:19:49.379Z,53.48
2022-08-22T10:22:44.477Z,52.87
2022-08-22T10:25:35.761Z,54.06
2022-08-22T10:28:28.801Z,54.16
2022-08-22T10:31:23.692Z,53.50
2022-08-22T10:34:12.873Z,52.46
2022-08-22T10:37:04.381Z,52.37
2022-08-22T10:40:02.580Z,52.97
2022-08-22T10:42:53.539Z,52.78
2022-08-22T10:45:40.490Z,52.20
2022-08-22T10:48:46.507Z,52.00
2022-08-22T10:51:44.663Z,51.19
2022-08-22T10:54:51.395Z,50.06
2022-08-22T10:57:49.416Z,51.59
2022-08-22T11:00:49.851Z,52.26
2022-08-22T11:03:43.621Z,52.39
2022-08-22T11:06:34.009Z,52.25
2022-08-22T11:09:32.139Z,52.70
2022-08-22T11:12:23.511Z,53.21
2022-08-22T11:15:28.339Z,53.11
2022-08-22T11:18:23.593Z,53.63
2022-08-22T11:21:10.954Z,53.75
2022-08-22T11:24:04.858Z,54.37
2022-08-22T11:27:00.127Z,53.66
2022-08-22T11:29:52.418Z,53.92
2022-08-22T11:32:39.907Z,53.60
2022-08-22T11:35:26.018Z,52.81
2022-08-22T11:38:21.290Z,53.28
2022-08-22T11:41:06.956Z,52.99
2022-08-22T11:44:00.538Z,53.93
2022-08-22T11:46:49.191Z,53.51
2022-08-22T11:49:44.218Z,53.64
2022-08-22T11:52:51.672Z,53.33
2022-08-22T11:55:39.333Z,53.11
2022-08-22T11:58:28.967Z,54.14
2022-08-22T12:01:18.628Z,53.78
2022-08-22T12:04:10.183Z,53.80
2022-08-22T12:07:04.001Z,55.86
2022-08-22T12:09:51.980Z,53.99
2022-08-22T12:12:47.465Z,53.56
2022-08-22T12:15:40.477Z,54.15
2022-08-22T12:18:43.206Z,53.35
2022-08-22T12:22:03.183Z,53.97
2022-08-22T12:25:04.373Z,53.34
2022-08-22T12:27:56.642Z,54.27
2022-08-22T12:30:46.871Z,54.65
2022-08-22T12:33:48.276Z,54.53
2022-08-22T12:37:05.853Z,55.56
2022-08-22T12:40:09.794Z,55.57
2022-08-22T12:43:13.269Z,56.16
2022-08-22T12:46:15.096Z,56.69
2022-08-22T12:49:23.251Z,57.62
2022-08-22T12:52:25.100Z,57.19
2022-08-22T12:55:25.566Z,57.19
2022-08-22T12:58:17.732Z,57.03
2022-08-22T13:01:06.310Z,58.32
2022-08-22T13:03:54.681Z,58.51
2022-08-22T13:06:57.698Z,58.52
2022-08-22T13:09:47.616Z,59.26
2022-08-22T13:12:37.710Z,59.36
2022-08-22T13:15:31.181Z,59.49
2022-08-22T13:18:30.560Z,59.36
2022-08-22T13:21:17.759Z,60.14
2022-08-22T13:24:10.489Z,60.12
2022-08-22T13:27:01.093Z,59.19
2022-08-22T13:29:54.722Z,59.96
2022-08-22T13:32:44.246Z,60.17
2022-08-22T13:35:35.312Z,59.59
2022-08-22T13:38:26.127Z,59.77
2022-08-22T13:41:11.647Z,59.04
2022-08-22T13:44:11.635Z,58.95
2022-08-22T13:47:13.651Z,59.12
2022-08-22T13:50:07.269Z,59.09
2022-08-22T13:52:56.864Z,59.30
2022-08-22T13:55:49.152Z,58.89
2022-08-22T13:58:42.242Z,59.26
2022-08-22T14:01:38.791Z,58.60
2022-08-22T14:04:33.349Z,58.65
2022-08-22T14:07:28.232Z,57.77
2022-08-22T14:10:19.726Z,58.32
2022-08-22T14:13:39.728Z,57.79
2022-08-22T14:16:27.265Z,56.47
2022-08-22T14:19:23.289Z,57.19
2022-08-22T14:22:14.719Z,57.20
2022-08-22T14:25:01.524Z,56.76
2022-08-22T14:27:57.988Z,57.23
2022-08-22T14:31:01.911Z,57.34
2022-08-22T14:33:49.871Z,57.48
2022-08-22T14:36:41.281Z,57.55
2022-08-22T14:39:34.895Z,57.96
2022-08-22T14:42:22.930Z,57.21
2022-08-22T14:45:11.830Z,57.31
2022-08-22T14:48:29.711Z,57.60
2022-08-22T14:51:10.054Z,57.48
2022-08-22T14:53:53.986Z,57.51
2022-08-22T14:56:38.918Z,57.49
2022-08-22T14:59:33.715Z,57.88
2022-08-22T15:02:26.603Z,57.94
2022-08-22T15:05:19.785Z,57.98
2022-08-22T15:08:02.936Z,57.90
2022-08-22T15:10:49.020Z,57.77
2022-08-22T15:13:32.207Z,57.33
2022-08-22T15:16:20.044Z,57.80
2022-08-22T15:19:22.922Z,58.06
2022-08-22T15:22:15.739Z,57.78
2022-08-22T15:25:04.183Z,57.21
2022-08-22T15:27:53.838Z,58.12
2022-08-22T15:30:44.082Z,58.34
2022-08-22T15:33:32.251Z,57.80
2022-08-22T15:36:17.468Z,58.30
2022-08-22T15:39:30.312Z,58.40
2022-08-22T15:42:26.950Z,58.17
2022-08-22T15:45:21.109Z,58.19
2022-08-22T15:48:10.071Z,58.74
2022-08-22T15:51:00.114Z,58.86
2022-08-22T15:54:00.804Z,59.22
2022-08-22T15:57:16.343Z,59.17
2022-08-22T16:00:03.127Z,59.26
2022-08-22T16:03:01.529Z,59.42
2022-08-22T16:05:55.238Z,59.65
2022-08-22T16:08:50.382Z,59.59
2022-08-22T16:11:37.860Z,59.78
2022-08-22T16:14:25.662Z,59.62
2022-08-22T16:17:41.883Z,59.80
2022-08-22T16:20:51.858Z,59.09
2022-08-22T16:24:17.581Z,59.34
2022-08-22T16:27:18.885Z,59.45
2022-08-22T16:30:16.639Z,59.87
2022-08-22T16:33:00.666Z,59.93
2022-08-22T16:36:05.155Z,60.05
2022-08-22T16:38:51.569Z,60.08
2022-08-22T16:41:40.290Z,59.88
2022-08-22T16:44:51.219Z,60.20
2022-08-22T16:47:43.054Z,60.46
2022-08-22T16:50:40.874Z,60.21
2022-08-22T16:54:01.549Z,60.42
2022-08-22T16:57:09.145Z,60.33
2022-08-22T17:00:07.485Z,59.85
2022-08-22T17:03:08.751Z,59.93
2022-08-22T17:06:04.719Z,60.14
2022-08-22T17:08:56.596Z,61.02
2022-08-22T17:11:52.968Z,61.29
2022-08-22T17:14:47.423Z,61.73
2022-08-22T17:17:37.675Z,61.97
2022-08-22T17:20:33.874Z,62.03
2022-08-22T17:23:28.769Z,62.31
2022-08-22T17:26:21.548Z,62.95
2022-08-22T17:29:24.907Z,62.99
2022-08-22T17:32:18.575Z,62.78
2022-08-22T17:35:14.663Z,62.97
2022-08-22T17:38:21.121Z,62.75
2022-08-22T17:41:13.236Z,62.54
2022-08-22T17:44:08.818Z,62.66
2022-08-22T17:46:56.327Z,63.02
2022-08-22T17:49:52.307Z,62.75
2022-08-22T17:52:42.630Z,62.66
2022-08-22T17:55:32.580Z,62.62
2022-08-22T17:58:33.605Z,63.33
2022-08-22T18:01:40.895Z,63.04
2022-08-22T18:04:32.136Z,63.39
2022-08-22T18:07:50.261Z,63.69
2022-08-22T18:10:43.183Z,64.02
2022-08-22T18:13:37.999Z,63.92
2022-08-22T18:16:27.106Z,64.05
2022-08-22T18:19:20.348Z,64.26
2022-08-22T18:22:09.502Z,64.07
2022-08-22T18:25:00.840Z,64.30
2022-08-22T18:27:54.727Z,64.15
2022-08-22T18:30:51.871Z,64.23
2022-08-22T18:33:41.079Z,64.44
2022-08-22T18:36:31.322Z,64.29
2022-08-22T18:39:22.574Z,64.39
2022-08-22T18:42:11.592Z,64.11
2022-08-22T18:44:56.407Z,64.29
2022-08-22T18:47:39.266Z,64.71
2022-08-22T18:50:32.698Z,64.38
2022-08-22T18:53:38.010Z,64.50
2022-08-22T18:56:50.236Z,64.53
2022-08-22T18:59:46.004Z,64.81
2022-08-22T19:02:57.731Z,64.59
2022-08-22T19:06:09.558Z,64.12
2022-08-22T19:09:16.120Z,64.30
2022-08-22T19:12:06.582Z,64.50
2022-08-22T19:15:07.357Z,64.87
2022-08-22T19:18:23.907Z,65.08
2022-08-22T19:21:40.264Z,64.96
2022-08-22T19:25:03.276Z,65.23
2022-08-22T19:28:08.661Z,65.38
2022-08-22T19:30:52.814Z,65.48
2022-08-22T19:33:42.239Z,65.70
2022-08-22T19:36:31.882Z,65.69
2022-08-22T19:39:44.744Z,65.92
2022-08-22T19:42:37.572Z,65.67
2022-08-22T19:45:25.757Z,65.82
2022-08-22T19:48:14.529Z,65.76
2022-08-22T19:51:12.771Z,66.14
2022-08-22T19:54:16.435Z,66.52
2022-08-22T19:57:10.936Z,66.31
2022-08-22T20:00:03.181Z,66.51
2022-08-22T20:03:01.971Z,66.62
2022-08-22T20:05:57.058Z,66.83
2022-08-22T20:08:51.337Z,67.50
2022-08-22T20:11:45.415Z,67.36
2022-08-22T20:14:31.142Z,67.06
2022-08-22T20:17:35.753Z,67.32
2022-08-22T20:20:56.876Z,67.54
2022-08-22T20:23:40.196Z,67.64
2022-08-22T20:26:25.270Z,67.58
2022-08-22T20:29:08.436Z,67.65
2022-08-22T20:31:56.768Z,67.52
2022-08-22T20:34:43.298Z,67.35
2022-08-22T20:38:02.822Z,67.60
2022-08-22T20:40:56.959Z,67.19
2022-08-22T20:43:48.008Z,67.18
2022-08-22T20:46:44.871Z,67.18
2022-08-22T20:49:32.522Z,67.28
2022-08-22T20:52:27.301Z,67.32
2022-08-22T20:55:17.496Z,67.46
2022-08-22T20:58:03.530Z,67.26
2022-08-22T21:00:52.330Z,67.10
2022-08-22T21:03:41.284Z,67.20
2022-08-22T21:06:32.394Z,67.55
2022-08-22T21:09:38.853Z,67.50
2022-08-22T21:12:22.312Z,67.37
2022-08-22T21:15:06.203Z,67.58
2022-08-22T21:17:51.647Z,67.72
2022-08-22T21:20:37.628Z,67.63
2022-08-22T21:23:21.249Z,68.04
2022-08-22T21:26:08.043Z,67.68
2022-08-22T21:29:00.441Z,67.77
2022-08-22T21:31:47.755Z,67.77
2022-08-22T21:34:35.691Z,67.80
2022-08-22T21:37:26.185Z,67.43
2022-08-22T21:40:16.980Z,67.44
2022-08-22T21:43:03.823Z,67.81
2022-08-22T21:45:47.101Z,67.93
2022-08-22T21:48:43.820Z,67.88
2022-08-22T21:51:43.867Z,68.07
2022-08-22T21:54:40.695Z,68.43
2022-08-22T21:57:35.977Z,68.13
2022-08-22T22:00:41.859Z,68.06
2022-08-22T22:03:37.264Z,68.06
2022-08-22T22:06:20.454Z,67.97
2022-08-22T22:09:05.096Z,67.86
2022-08-22T22:11:48.221Z,67.41
2022-08-22T22:14:31.302Z,67.48
2022-08-22T22:17:14.399Z,67.43
2022-08-22T22:19:57.366Z,67.25
2022-08-22T22:22:46.007Z,67.23
2022-08-22T22:25:38.937Z,66.96
2022-08-22T22:28:29.319Z,66.89
2022-08-22T22:31:12.335Z,66.83
2022-08-22T22:33:55.496Z,66.83
2022-08-22T22:36:38.779Z,66.92
2022-08-22T22:39:21.873Z,66.97
2022-08-22T22:42:07.184Z,67.07
2022-08-22T22:44:50.064Z,67.38
2022-08-22T22:47:34.830Z,67.15
2022-08-22T22:50:17.745Z,67.41
2022-08-22T22:53:00.815Z,67.32
2022-08-22T22:55:43.904Z,67.54
2022-08-22T22:58:28.690Z,67.55
2022-08-22T23:01:12.331Z,67.38
2022-08-22T23:03:57.446Z,67.58
2022-08-22T23:06:40.521Z,67.38
2022-08-22T23:09:37.944Z,67.40
2022-08-22T23:12:22.532Z,67.26
2022-08-22T23:15:08.070Z,67.29
2022-08-22T23:17:51.186Z,67.34
2022-08-22T23:20:34.271Z,67.35
2022-08-22T23:23:17.336Z,67.38
2022-08-22T23:26:00.572Z,67.59
2022-08-22T23:28:43.895Z,67.42
2022-08-22T23:31:31.982Z,67.43
2022-08-22T23:34:17.157Z,67.46
2022-08-22T23:37:02.394Z,67.37
2022-08-22T23:39:50.161Z,67.58
2022-08-22T23:42:33.315Z,67.53
2022-08-22T23:45:16.403Z,67.35
2022-08-22T23:48:01.010Z,67.29
2022-08-22T23:50:44.080Z,67.20
2022-08-22T23:53:28.583Z,67.23
2022-08-22T23:56:19.442Z,66.88
2022-08-22T23:59:05.926Z,66.68
